createdAt,value
2022-12-04T00:01:20.691Z,27.58
2022-12-04T00:03:48.629Z,24.77
2022-12-04T00:06:19.713Z,26.90
2022-12-04T00:08:48.797Z,26.45
2022-12-04T00:11:19.062Z,25.95
2022-12-04T00:13:47.159Z,28.30
2022-12-04T00:16:17.255Z,26.17
2022-12-04T00:18:45.683Z,27.17
2022-12-04T00:21:15.471Z,26.25
2022-12-04T00:23:45.438Z,26.67
2022-12-04T00:26:15.323Z,26.00
2022-12-04T00:28:43.907Z,27.05
2022-12-04T00:31:13.833Z,25.50
2022-12-04T00:33:42.470Z,26.05
2022-12-04T00:36:14.261Z,25.90
2022-12-04T00:38:44.580Z,24.45
2022-12-04T00:41:13.954Z,25.55
2022-12-04T00:43:42.036Z,26.88
2022-12-04T00:46:10.264Z,25.13
2022-12-04T00:48:38.320Z,27.30
2022-12-04T00:51:07.608Z,26.48
2022-12-04T00:53:35.743Z,25.98
2022-12-04T00:56:07.219Z,25.83
2022-12-04T00:58:35.329Z,26.80
2022-12-04T01:01:04.469Z,25.90
2022-12-04T01:03:32.704Z,23.95
2022-12-04T01:06:00.807Z,26.60
2022-12-04T01:08:28.783Z,25.63
2022-12-04T01:10:56.730Z,25.40
2022-12-04T01:13:27.006Z,26.38
2022-12-04T01:15:55.008Z,25.05
2022-12-04T01:18:22.946Z,21.83
2022-12-04T01:20:52.904Z,25.70
2022-12-04T01:23:21.817Z,24.13
2022-12-04T01:25:54.222Z,25.40
2022-12-04T01:28:22.707Z,24.48
2022-12-04T01:31:00.998Z,24.92
2022-12-04T01:33:29.358Z,26.42
2022-12-04T01:35:58.921Z,25.95
2022-12-04T01:38:27.478Z,24.98
2022-12-04T01:40:56.477Z,24.13
2022-12-04T01:43:25.252Z,25.23
2022-12-04T01:45:55.427Z,25.67
2022-12-04T01:48:30.729Z,25.27
2022-12-04T01:51:06.335Z,26.48
2022-12-04T01:53:37.648Z,26.60
2022-12-04T01:56:06.734Z,26.65
2022-12-04T01:58:38.890Z,27.00
2022-12-04T02:01:09.410Z,24.77
2022-12-04T02:03:39.666Z,25.42
2022-12-04T02:06:08.045Z,26.00
2022-12-04T02:08:36.989Z,26.23
2022-12-04T02:11:16.728Z,26.65
2022-12-04T02:13:56.349Z,26.98
2022-12-04T02:16:29.655Z,28.10
2022-12-04T02:19:08.754Z,24.80
2022-12-04T02:21:38.836Z,24.73
2022-12-04T02:24:23.962Z,27.10
2022-12-04T02:26:57.203Z,25.98
2022-12-04T02:29:37.030Z,25.75
2022-12-04T02:32:14.207Z,23.70
2022-12-04T02:34:47.217Z,29.05
2022-12-04T02:37:20.055Z,26.50
2022-12-04T02:39:55.425Z,24.17
2022-12-04T02:42:31.652Z,25.08
2022-12-04T02:45:04.236Z,27.80
2022-12-04T02:47:34.359Z,26.58
2022-12-04T02:50:07.042Z,27.80
2022-12-04T02:52:39.048Z,26.92
2022-12-04T02:55:11.333Z,26.73
2022-12-04T02:57:43.890Z,29.25
2022-12-04T03:00:15.064Z,25.73
2022-12-04T03:02:48.337Z,27.25
2022-12-04T03:05:20.467Z,27.23
2022-12-04T03:07:52.893Z,29.58
2022-12-04T03:10:26.157Z,27.98
2022-12-04T03:12:57.827Z,26.90
2022-12-04T03:15:31.159Z,26.45
2022-12-04T03:18:02.536Z,27.02
2022-12-04T03:20:32.311Z,26.17
2022-12-04T03:23:04.376Z,26.50
2022-12-04T03:25:38.608Z,25.60
2022-12-04T03:28:09.538Z,24.77
2022-12-04T03:30:44.274Z,27.65
2022-12-04T03:33:16.417Z,29.98
2022-12-04T03:35:50.505Z,26.58
2022-12-04T03:38:23.338Z,28.10
2022-12-04T03:41:00.818Z,26.48
2022-12-04T03:43:34.510Z,27.17
2022-12-04T03:46:09.189Z,28.35
2022-12-04T03:48:41.988Z,27.70
2022-12-04T03:51:16.177Z,26.05
2022-12-04T03:53:48.870Z,26.73
2022-12-04T03:56:19.911Z,26.95
2022-12-04T03:58:52.078Z,26.33
2022-12-04T04:01:34.065Z,29.23
2022-12-04T04:04:07.476Z,27.98
2022-12-04T04:06:41.676Z,28.75
2022-12-04T04:09:15.672Z,28.20
2022-12-04T04:11:49.680Z,27.60
2022-12-04T04:14:40.080Z,27.30
2022-12-04T04:17:36.458Z,31.02
2022-12-04T04:20:27.479Z,25.60
2022-12-04T04:23:19.273Z,30.92
2022-12-04T04:25:48.561Z,28.65
2022-12-04T04:28:31.316Z,26.63
2022-12-04T04:31:07.098Z,29.00
2022-12-04T04:33:46.349Z,28.38
2022-12-04T04:36:22.687Z,28.38
2022-12-04T04:38:59.906Z,27.60
2022-12-04T04:41:35.239Z,27.40
2022-12-04T04:44:12.886Z,33.53
2022-12-04T04:46:46.913Z,28.20
2022-12-04T04:49:18.376Z,26.42
2022-12-04T04:51:47.112Z,27.60
2022-12-04T04:54:17.635Z,30.17
2022-12-04T04:56:47.614Z,29.35
2022-12-04T04:59:16.123Z,30.30
2022-12-04T05:01:46.861Z,28.10
2022-12-04T05:04:16.506Z,26.63
2022-12-04T05:06:44.420Z,27.60
2022-12-04T05:09:12.312Z,26.95
2022-12-04T05:11:40.209Z,27.63
2022-12-04T05:14:09.468Z,29.75
2022-12-04T05:16:37.753Z,28.05
2022-12-04T05:19:23.241Z,27.13
2022-12-04T05:21:52.513Z,25.48
2022-12-04T05:24:20.422Z,28.10
2022-12-04T05:26:48.320Z,29.83
2022-12-04T05:29:16.199Z,28.40
2022-12-04T05:31:44.261Z,29.52
2022-12-04T05:34:12.205Z,28.80
2022-12-04T05:36:40.157Z,28.27
2022-12-04T05:39:09.395Z,26.38
2022-12-04T05:41:37.292Z,27.58
2022-12-04T05:44:05.248Z,28.98
2022-12-04T05:46:33.212Z,28.08
2022-12-04T05:49:01.221Z,26.75
2022-12-04T05:51:29.138Z,26.27
2022-12-04T05:53:57.071Z,27.65
2022-12-04T05:56:26.399Z,28.90
2022-12-04T05:58:54.353Z,27.83
2022-12-04T06:01:24.641Z,25.98
2022-12-04T06:03:52.657Z,28.23
2022-12-04T06:06:23.032Z,30.77
2022-12-04T06:08:51.638Z,29.80
2022-12-04T06:11:22.621Z,28.60
2022-12-04T06:13:52.179Z,29.42
2022-12-04T06:16:25.689Z,24.20
2022-12-04T06:18:55.125Z,25.10
2022-12-04T06:21:24.807Z,28.50
2022-12-04T06:23:53.206Z,29.13
2022-12-04T06:26:21.804Z,29.75
2022-12-04T06:28:53.350Z,27.88
2022-12-04T06:31:21.524Z,27.33
2022-12-04T06:33:50.070Z,25.90
2022-12-04T06:36:21.033Z,28.77
2022-12-04T06:38:49.613Z,27.95
2022-12-04T06:41:20.294Z,31.15
2022-12-04T06:43:48.558Z,27.98
2022-12-04T06:46:19.912Z,28.35
2022-12-04T06:48:48.117Z,30.00
2022-12-04T06:51:18.037Z,28.25
2022-12-04T06:53:46.704Z,27.63
2022-12-04T06:56:18.069Z,27.15
2022-12-04T06:58:46.405Z,29.60
2022-12-04T07:01:16.070Z,30.73
2022-12-04T07:03:51.071Z,31.75
2022-12-04T07:06:21.788Z,30.10
2022-12-04T07:08:52.522Z,31.05
2022-12-04T07:11:21.430Z,28.17
2022-12-04T07:13:49.698Z,28.88
2022-12-04T07:16:19.568Z,29.13
2022-12-04T07:18:50.329Z,28.15
2022-12-04T07:21:20.941Z,25.65
2022-12-04T07:23:51.308Z,26.98
2022-12-04T07:26:19.967Z,26.23
2022-12-04T07:28:48.294Z,27.15
2022-12-04T07:31:18.200Z,30.45
2022-12-04T07:33:48.465Z,29.80
2022-12-04T07:36:18.136Z,28.13
2022-12-04T07:38:46.149Z,29.20
2022-12-04T07:41:15.456Z,29.13
2022-12-04T07:43:43.642Z,27.95
2022-12-04T07:46:13.650Z,31.60
2022-12-04T07:48:42.132Z,27.77
2022-12-04T07:51:13.198Z,29.95
2022-12-04T07:53:41.958Z,30.35
2022-12-04T07:56:10.985Z,27.42
2022-12-04T07:58:39.362Z,28.30
2022-12-04T08:01:09.142Z,28.33
2022-12-04T08:03:40.851Z,29.73
2022-12-04T08:06:13.174Z,29.73
2022-12-04T08:08:41.188Z,28.48
2022-12-04T08:11:09.734Z,30.27
2022-12-04T08:13:37.833Z,27.75
2022-12-04T08:16:07.441Z,31.45
2022-12-04T08:18:35.761Z,31.17
2022-12-04T08:21:05.713Z,28.33
2022-12-04T08:23:35.177Z,30.30
2022-12-04T08:26:04.078Z,31.33
2022-12-04T08:28:32.971Z,31.10
2022-12-04T08:31:04.758Z,30.80
2022-12-04T08:33:33.200Z,32.40
2022-12-04T08:36:01.495Z,33.63
2022-12-04T08:38:29.373Z,29.77
2022-12-04T08:41:02.196Z,31.08
2022-12-04T08:43:30.497Z,32.25
2022-12-04T08:45:59.474Z,31.58
2022-12-04T08:48:27.803Z,35.00
2022-12-04T08:50:56.553Z,34.38
2022-12-04T08:53:25.278Z,33.60
2022-12-04T08:55:53.821Z,32.75
2022-12-04T08:58:23.204Z,33.55
2022-12-04T09:00:51.223Z,34.97
2022-12-04T09:03:24.762Z,31.23
2022-12-04T09:06:00.498Z,29.95
2022-12-04T09:08:28.838Z,31.75
2022-12-04T09:10:56.756Z,29.23
2022-12-04T09:13:26.055Z,32.80
2022-12-04T09:15:53.999Z,31.88
2022-12-04T09:18:21.973Z,31.95
2022-12-04T09:20:57.140Z,30.40
2022-12-04T09:25:53.082Z,31.00
2022-12-04T09:28:21.612Z,30.30
2022-12-04T09:30:59.524Z,34.70
2022-12-04T09:33:27.570Z,31.55
2022-12-04T09:35:55.957Z,32.53
2022-12-04T09:38:23.980Z,32.55
2022-12-04T09:40:57.381Z,34.22
2022-12-04T09:43:32.182Z,35.95
2022-12-04T09:46:09.085Z,31.80
2022-12-04T09:48:42.018Z,33.17
2022-12-04T09:51:18.767Z,33.17
2022-12-04T09:53:52.231Z,33.88
2022-12-04T09:56:21.729Z,35.30
2022-12-04T09:58:53.978Z,32.05
2022-12-04T10:01:28.801Z,33.80
2022-12-04T10:04:02.649Z,31.05
2022-12-04T10:06:41.406Z,34.42
2022-12-04T10:09:17.751Z,32.78
2022-12-04T10:11:53.843Z,31.88
2022-12-04T10:14:57.005Z,31.88
2022-12-04T10:17:40.531Z,31.05
2022-12-04T10:20:22.701Z,32.28
2022-12-04T10:23:00.156Z,30.63
2022-12-04T10:25:29.279Z,31.52
2022-12-04T10:28:02.063Z,36.30
2022-12-04T10:30:33.322Z,35.70
2022-12-04T10:33:14.455Z,34.03
2022-12-04T10:35:44.701Z,32.67
2022-12-04T10:38:21.835Z,34.88
2022-12-04T10:40:54.356Z,32.30
2022-12-04T10:43:32.680Z,35.28
2022-12-04T10:46:00.630Z,34.45
2022-12-04T10:48:36.128Z,33.20
2022-12-04T10:51:04.332Z,31.92
2022-12-04T10:53:35.794Z,33.78
2022-12-04T10:56:12.396Z,33.65
2022-12-04T10:58:40.354Z,35.00
2022-12-04T11:01:11.668Z,35.08
2022-12-04T11:03:42.347Z,32.10
2022-12-04T11:06:11.487Z,33.50
2022-12-04T11:08:42.158Z,34.78
2022-12-04T11:11:12.843Z,34.92
2022-12-04T11:13:41.429Z,31.67
2022-12-04T11:16:25.286Z,34.00
2022-12-04T11:18:54.588Z,35.88
2022-12-04T11:21:28.573Z,31.33
2022-12-04T11:23:56.817Z,32.70
2022-12-04T11:26:32.335Z,33.05
2022-12-04T11:29:02.299Z,34.08
2022-12-04T11:31:31.496Z,32.97
2022-12-04T11:34:03.643Z,32.75
2022-12-04T11:36:34.565Z,31.92
2022-12-04T11:39:08.365Z,34.55
2022-12-04T11:41:36.325Z,31.65
2022-12-04T11:44:07.148Z,32.58
2022-12-04T11:46:35.728Z,33.58
2022-12-04T11:49:05.068Z,35.28
2022-12-04T11:51:46.552Z,33.33
2022-12-04T11:54:26.699Z,33.90
2022-12-04T11:57:06.961Z,34.40
2022-12-04T11:59:47.750Z,31.70
2022-12-04T12:02:57.898Z,31.23
2022-12-04T12:05:57.327Z,33.17
2022-12-04T12:08:39.146Z,32.33
2022-12-04T12:11:17.489Z,33.10
2022-12-04T12:13:54.366Z,36.00
2022-12-04T12:16:35.558Z,35.05
2022-12-04T12:19:30.132Z,30.80
2022-12-04T12:22:07.443Z,34.70
2022-12-04T12:24:46.870Z,33.42
2022-12-04T12:27:34.025Z,31.77
2022-12-04T12:30:07.579Z,32.40
2022-12-04T12:32:53.989Z,34.85
2022-12-04T12:35:26.892Z,33.00
2022-12-04T12:38:01.128Z,33.15
2022-12-04T12:40:36.116Z,35.80
2022-12-04T12:43:08.535Z,31.00
2022-12-04T12:45:45.256Z,36.35
2022-12-04T12:48:27.042Z,35.25
2022-12-04T12:51:22.250Z,34.78
2022-12-04T12:53:55.644Z,32.78
2022-12-04T12:59:05.885Z,31.52
2022-12-04T13:01:46.271Z,37.90
2022-12-04T13:04:23.295Z,34.38
2022-12-04T13:06:57.258Z,36.20
2022-12-04T13:09:31.808Z,37.33
2022-12-04T13:12:03.008Z,35.53
2022-12-04T13:14:31.093Z,37.35
2022-12-04T13:17:03.054Z,35.88
2022-12-04T13:19:37.093Z,36.50
2022-12-04T13:22:16.951Z,37.28
2022-12-04T13:25:07.186Z,37.58
2022-12-04T13:27:51.437Z,37.03
2022-12-04T13:30:22.580Z,36.05
2022-12-04T13:33:05.865Z,36.40
2022-12-04T13:35:54.224Z,35.58
2022-12-04T13:38:30.903Z,33.38
2022-12-04T13:41:03.254Z,35.17
2022-12-04T13:43:37.921Z,32.78
2022-12-04T13:46:08.382Z,35.97
2022-12-04T13:48:40.594Z,33.60
2022-12-04T13:51:37.329Z,33.60
2022-12-04T13:54:24.566Z,33.65
2022-12-04T13:56:56.525Z,34.70
2022-12-04T13:59:35.963Z,34.10
2022-12-04T14:02:25.137Z,32.92
2022-12-04T14:04:56.804Z,33.22
2022-12-04T14:07:29.113Z,34.13
2022-12-04T14:09:59.667Z,35.63
2022-12-04T14:12:32.044Z,34.30
2022-12-04T14:15:02.992Z,32.75
2022-12-04T14:17:33.096Z,33.92
2022-12-04T14:20:07.843Z,35.47
2022-12-04T14:25:35.232Z,35.97
2022-12-04T14:28:24.122Z,33.63
2022-12-04T14:31:04.743Z,36.00
2022-12-04T14:33:36.922Z,38.95
2022-12-04T14:36:09.034Z,36.47
2022-12-04T14:38:37.648Z,35.15
2022-12-04T14:41:05.724Z,35.97
2022-12-04T14:43:40.096Z,37.08
2022-12-04T14:46:14.755Z,35.20
2022-12-04T14:48:53.524Z,38.35
2022-12-04T14:51:31.205Z,37.03
2022-12-04T14:54:07.298Z,37.83
2022-12-04T14:56:50.825Z,35.55
2022-12-04T14:59:22.189Z,36.05
2022-12-04T15:01:51.820Z,40.72
2022-12-04T15:04:25.003Z,37.15
2022-12-04T15:07:00.017Z,34.50
2022-12-04T15:09:56.035Z,37.47
2022-12-04T15:12:34.917Z,34.45
2022-12-04T15:15:17.352Z,36.10
2022-12-04T15:17:45.390Z,35.58
2022-12-04T15:20:17.891Z,37.55
2022-12-04T15:22:46.716Z,38.30
2022-12-04T15:25:21.132Z,36.85
2022-12-04T15:27:50.595Z,35.35
2022-12-04T15:30:23.531Z,34.63
2022-12-04T15:32:54.038Z,36.88
2022-12-04T15:35:27.887Z,35.65
2022-12-04T15:37:56.728Z,33.60
2022-12-04T15:40:27.336Z,33.60
2022-12-04T15:42:56.205Z,34.58
2022-12-04T15:45:34.265Z,35.17
2022-12-04T15:48:02.786Z,37.08
2022-12-04T15:50:31.838Z,39.25
2022-12-04T15:53:03.737Z,36.75
2022-12-04T15:55:34.569Z,37.10
2022-12-04T15:58:05.854Z,49.47
2022-12-04T16:00:37.877Z,56.70
2022-12-04T16:03:20.021Z,42.00
2022-12-04T16:05:49.094Z,68.75
2022-12-04T16:08:24.935Z,40.35
2022-12-04T16:10:58.797Z,49.78
2022-12-04T16:13:32.429Z,35.70
2022-12-04T16:16:05.368Z,37.85
2022-12-04T16:18:33.628Z,37.10
2022-12-04T16:21:01.708Z,35.83
2022-12-04T16:23:29.705Z,37.15
2022-12-04T16:25:57.781Z,35.03
2022-12-04T16:28:25.840Z,35.47
2022-12-04T16:30:53.816Z,36.05
2022-12-04T16:33:23.142Z,37.05
2022-12-04T16:35:51.160Z,37.85
2022-12-04T16:38:19.239Z,37.22
2022-12-04T16:40:48.454Z,36.75
2022-12-04T16:43:18.194Z,35.25
2022-12-04T16:45:48.980Z,36.10
2022-12-04T16:48:17.011Z,39.08
2022-12-04T16:50:46.822Z,33.90
2022-12-04T16:53:17.765Z,36.97
2022-12-04T16:55:48.252Z,35.28
2022-12-04T16:58:17.483Z,34.70
2022-12-04T17:00:51.003Z,33.28
2022-12-04T17:03:30.009Z,35.22
2022-12-04T17:06:00.324Z,36.10
2022-12-04T17:08:29.680Z,34.85
2022-12-04T17:10:57.744Z,36.00
2022-12-04T17:13:25.756Z,35.83
2022-12-04T17:15:53.848Z,35.78
2022-12-04T17:18:21.892Z,37.05
2022-12-04T17:20:50.358Z,36.63
2022-12-04T17:23:19.661Z,34.42
2022-12-04T17:25:47.615Z,36.67
2022-12-04T17:28:15.715Z,35.70
2022-12-04T17:30:48.409Z,36.22
2022-12-04T17:33:16.421Z,34.90
2022-12-04T17:35:44.820Z,37.20
2022-12-04T17:38:12.977Z,37.00
2022-12-04T17:40:42.244Z,34.88
2022-12-04T17:43:10.193Z,36.22
2022-12-04T17:45:40.945Z,34.28
2022-12-04T17:48:08.938Z,33.35
2022-12-04T17:50:36.926Z,33.50
2022-12-04T17:53:04.875Z,37.03
2022-12-04T17:55:34.728Z,32.35
2022-12-04T17:58:04.163Z,35.28
2022-12-04T18:00:32.305Z,34.03
2022-12-04T18:03:00.663Z,33.95
2022-12-04T18:05:30.039Z,34.90
2022-12-04T18:07:57.995Z,35.42
2022-12-04T18:10:26.000Z,34.30
2022-12-04T18:12:53.940Z,37.90
2022-12-04T18:15:23.240Z,38.70
2022-12-04T18:17:51.159Z,35.53
2022-12-04T18:20:19.080Z,37.10
2022-12-04T18:22:47.057Z,34.33
2022-12-04T18:25:14.975Z,35.60
2022-12-04T18:27:43.039Z,35.28
2022-12-04T18:30:12.099Z,34.97
2022-12-04T18:32:41.428Z,35.38
2022-12-04T18:35:11.474Z,33.20
2022-12-04T18:37:40.115Z,34.47
2022-12-04T18:40:09.403Z,34.80
2022-12-04T18:42:37.756Z,34.28
2022-12-04T18:45:06.642Z,33.97
2022-12-04T18:47:36.483Z,34.35
2022-12-04T18:50:06.698Z,32.95
2022-12-04T18:52:36.835Z,35.92
2022-12-04T18:55:05.196Z,31.60
2022-12-04T18:57:33.204Z,34.13
2022-12-04T19:00:01.161Z,36.13
2022-12-04T19:02:29.125Z,34.08
2022-12-04T19:04:57.157Z,35.00
2022-12-04T19:07:26.379Z,34.63
2022-12-04T19:10:10.449Z,35.17
2022-12-04T19:12:38.932Z,37.03
2022-12-04T19:15:07.818Z,36.38
2022-12-04T19:17:35.746Z,34.13
2022-12-04T19:20:03.725Z,35.63
2022-12-04T19:22:32.952Z,32.13
2022-12-04T19:25:00.896Z,33.88
2022-12-04T19:27:28.898Z,33.45
2022-12-04T19:29:57.091Z,30.80
2022-12-04T19:32:25.803Z,34.25
2022-12-04T19:34:53.877Z,33.00
2022-12-04T19:37:21.911Z,30.42
2022-12-04T19:39:51.174Z,32.67
2022-12-04T19:42:19.174Z,27.75
2022-12-04T19:44:48.895Z,29.25
2022-12-04T19:47:18.849Z,32.85
2022-12-04T19:49:47.492Z,30.85
2022-12-04T19:52:15.855Z,29.88
2022-12-04T19:54:44.392Z,29.55
2022-12-04T19:57:16.204Z,32.92
2022-12-04T19:59:47.795Z,34.40
2022-12-04T20:02:16.483Z,30.95
2022-12-04T20:04:47.516Z,29.55
2022-12-04T20:07:15.465Z,31.35
2022-12-04T20:09:48.760Z,29.17
2022-12-04T20:12:21.223Z,29.63
2022-12-04T20:14:49.307Z,30.13
2022-12-04T20:17:17.515Z,29.13
2022-12-04T20:19:45.469Z,27.13
2022-12-04T20:22:15.550Z,30.95
2022-12-04T20:24:44.038Z,29.25
2022-12-04T20:27:12.178Z,29.52
2022-12-04T20:29:44.838Z,30.30
2022-12-04T20:32:13.381Z,27.42
2022-12-04T20:34:43.771Z,29.17
2022-12-04T20:37:12.139Z,26.70
2022-12-04T20:39:40.218Z,26.77
2022-12-04T20:42:08.157Z,28.33
2022-12-04T20:44:36.110Z,25.50
2022-12-04T20:47:05.518Z,28.88
2022-12-04T20:49:33.600Z,26.63
2022-12-04T20:52:01.611Z,27.48
2022-12-04T20:54:29.743Z,27.65
2022-12-04T20:56:57.920Z,26.30
2022-12-04T20:59:25.875Z,28.77
2022-12-04T21:01:54.698Z,26.65
2022-12-04T21:04:24.080Z,27.30
2022-12-04T21:06:52.143Z,24.90
2022-12-04T21:09:23.045Z,24.83
2022-12-04T21:11:53.358Z,25.38
2022-12-04T21:14:41.065Z,25.92
2022-12-04T21:17:11.724Z,26.60
2022-12-04T21:19:41.207Z,26.55
2022-12-04T21:22:09.338Z,25.42
2022-12-04T21:24:38.617Z,24.52
2022-12-04T21:27:09.080Z,23.27
2022-12-04T21:29:37.488Z,27.00
2022-12-04T21:32:06.648Z,26.50
2022-12-04T21:34:35.044Z,25.42
2022-12-04T21:37:04.527Z,26.77
2022-12-04T21:39:32.585Z,26.20
2022-12-04T21:42:17.993Z,28.00
2022-12-04T21:44:46.100Z,25.08
2022-12-04T21:47:14.111Z,26.60
2022-12-04T21:49:42.087Z,26.52
2022-12-04T21:52:11.534Z,28.27
2022-12-04T21:54:39.527Z,24.48
2022-12-04T21:57:07.567Z,27.55
2022-12-04T21:59:35.574Z,26.38
2022-12-04T22:02:03.778Z,25.30
2022-12-04T22:04:31.776Z,26.10
2022-12-04T22:07:01.052Z,26.38
2022-12-04T22:09:30.487Z,25.88
2022-12-04T22:11:58.435Z,25.90
2022-12-04T22:14:26.621Z,26.23
2022-12-04T22:16:55.252Z,24.48
2022-12-04T22:19:23.451Z,26.23
2022-12-04T22:21:51.427Z,27.38
2022-12-04T22:24:19.470Z,26.50
2022-12-04T22:26:48.707Z,25.98
2022-12-04T22:29:48.631Z,27.10
2022-12-04T22:32:04.684Z,25.75
2022-12-04T22:34:32.825Z,24.33
2022-12-04T22:37:00.799Z,26.92
2022-12-04T22:39:28.749Z,24.83
2022-12-04T22:41:58.094Z,25.52
2022-12-04T22:44:26.157Z,23.60
2022-12-04T22:46:54.146Z,26.92
2022-12-04T22:49:22.306Z,24.60
2022-12-04T22:51:50.218Z,24.25
2022-12-04T22:54:18.160Z,24.35
2022-12-04T22:56:46.124Z,24.10
2022-12-04T22:59:15.615Z,23.58
2022-12-04T23:01:43.602Z,23.63
2022-12-04T23:04:11.544Z,23.50
2022-12-04T23:06:39.542Z,26.42
2022-12-04T23:09:10.047Z,23.98
2022-12-04T23:11:38.493Z,25.10
2022-12-04T23:14:09.081Z,24.40
2022-12-04T23:16:39.441Z,25.92
2022-12-04T23:19:08.736Z,25.88
2022-12-04T23:21:36.751Z,25.45
2022-12-04T23:24:05.076Z,24.48
2022-12-04T23:26:35.066Z,25.90
2022-12-04T23:29:05.318Z,23.48
2022-12-04T23:31:39.870Z,24.80
2022-12-04T23:34:08.594Z,25.55
2022-12-04T23:36:36.538Z,25.58
2022-12-04T23:39:05.090Z,26.52
2022-12-04T23:41:33.142Z,26.23
2022-12-04T23:44:01.075Z,24.90
2022-12-04T23:46:32.375Z,24.60
2022-12-04T23:49:02.219Z,24.50
2022-12-04T23:51:30.982Z,24.55
2022-12-04T23:53:59.213Z,23.73
2022-12-04T23:56:28.802Z,24.88
2022-12-04T23:58:58.298Z,26.58
